sensor_id;sensor_type;location;lat;lon;timestamp;pressure;altitude;pressure_sealevel;temperature;humidity
70217;BME280;65567;55.684;37.570;2023-05-07T00:00:48;100195.41;;;3.87;48.72
70217;BME280;65567;55.684;37.570;2023-05-07T00:03:13;100202.31;;;3.90;48.72
70217;BME280;65567;55.684;37.570;2023-05-07T00:05:40;100194.53;;;3.90;48.72
70217;BME280;65567;55.684;37.570;2023-05-07T00:08:07;100203.25;;;3.81;48.96
70217;BME280;65567;55.684;37.570;2023-05-07T00:10:36;100198.03;;;3.84;48.99
70217;BME280;65567;55.684;37.570;2023-05-07T00:13:04;100201.53;;;3.77;49.42
70217;BME280;65567;55.684;37.570;2023-05-07T00:15:31;100205.84;;;3.81;49.00
70217;BME280;65567;55.684;37.570;2023-05-07T00:17:57;100200.66;;;3.83;49.08
70217;BME280;65567;55.684;37.570;2023-05-07T00:20:25;100197.22;;;3.74;49.38
70217;BME280;65567;55.684;37.570;2023-05-07T00:22:53;100196.34;;;3.77;49.28
70217;BME280;65567;55.684;37.570;2023-05-07T00:25:20;100196.38;;;3.74;49.47
70217;BME280;65567;55.684;37.570;2023-05-07T00:27:46;100198.13;;;3.75;49.36
70217;BME280;65567;55.684;37.570;2023-05-07T00:30:12;100198.16;;;3.69;49.68
70217;BME280;65567;55.684;37.570;2023-05-07T00:32:38;100202.47;;;3.68;49.58
70217;BME280;65567;55.684;37.570;2023-05-07T00:35:05;100203.25;;;3.81;49.41
70217;BME280;65567;55.684;37.570;2023-05-07T00:37:31;100202.38;;;3.80;49.43
70217;BME280;65567;55.684;37.570;2023-05-07T00:39:57;100206.63;;;3.89;49.10
70217;BME280;65567;55.684;37.570;2023-05-07T00:42:23;100206.59;;;3.92;49.40
70217;BME280;65567;55.684;37.570;2023-05-07T00:44:49;100209.19;;;3.94;49.16
70217;BME280;65567;55.684;37.570;2023-05-07T00:47:16;100207.47;;;3.94;48.95
70217;BME280;65567;55.684;37.570;2023-05-07T00:49:43;100211.91;;;3.78;49.57
70217;BME280;65567;55.684;37.570;2023-05-07T00:52:13;100216.19;;;3.79;49.47
70217;BME280;65567;55.684;37.570;2023-05-07T00:54:41;100211.94;;;3.74;49.46
70217;BME280;65567;55.684;37.570;2023-05-07T00:57:09;100214.59;;;3.60;50.00
70217;BME280;65567;55.684;37.570;2023-05-07T00:59:36;100212.03;;;3.58;50.01
70217;BME280;65567;55.684;37.570;2023-05-07T01:02:03;100213.72;;;3.64;49.79
70217;BME280;65567;55.684;37.570;2023-05-07T01:04:29;100224.97;;;3.63;49.83
70217;BME280;65567;55.684;37.570;2023-05-07T01:06:56;100217.13;;;3.74;49.78
70217;BME280;65567;55.684;37.570;2023-05-07T01:09:28;100215.38;;;3.73;49.68
70217;BME280;65567;55.684;37.570;2023-05-07T01:11:55;100215.34;;;3.79;49.53
70217;BME280;65567;55.684;37.570;2023-05-07T01:14:23;100220.50;;;3.82;49.45
70217;BME280;65567;55.684;37.570;2023-05-07T01:16:49;100217.88;;;3.88;49.66
70217;BME280;65567;55.684;37.570;2023-05-07T01:19:18;100217.84;;;3.93;49.31
70217;BME280;65567;55.684;37.570;2023-05-07T01:21:47;100216.97;;;3.94;49.24
70217;BME280;65567;55.684;37.570;2023-05-07T01:24:14;100217.00;;;3.86;49.31
70217;BME280;65567;55.684;37.570;2023-05-07T01:26:42;100217.97;;;3.76;49.68
70217;BME280;65567;55.684;37.570;2023-05-07T01:29:08;100237.03;;;3.64;49.87
70217;BME280;65567;55.684;37.570;2023-05-07T01:31:35;100231.88;;;3.61;50.12
70217;BME280;65567;55.684;37.570;2023-05-07T01:34:03;100227.56;;;3.58;50.13
70217;BME280;65567;55.684;37.570;2023-05-07T01:36:31;100236.28;;;3.51;50.23
70217;BME280;65567;55.684;37.570;2023-05-07T01:38:59;100237.97;;;3.55;50.31
70217;BME280;65567;55.684;37.570;2023-05-07T01:41:25;100230.19;;;3.52;50.33
70217;BME280;65567;55.684;37.570;2023-05-07T01:43:52;100231.03;;;3.60;50.24
70217;BME280;65567;55.684;37.570;2023-05-07T01:46:19;100243.94;;;3.65;50.32
70217;BME280;65567;55.684;37.570;2023-05-07T01:48:46;100241.25;;;3.80;50.04
70217;BME280;65567;55.684;37.570;2023-05-07T01:51:12;100246.38;;;3.90;49.85
70217;BME280;65567;55.684;37.570;2023-05-07T01:53:39;100244.59;;;4.00;49.78
70217;BME280;65567;55.684;37.570;2023-05-07T01:56:06;100246.09;;;4.24;49.26
70217;BME280;65567;55.684;37.570;2023-05-07T01:58:32;100253.81;;;4.32;49.15
70217;BME280;65567;55.684;37.570;2023-05-07T02:00:58;100254.44;;;4.58;48.68
70217;BME280;65567;55.684;37.570;2023-05-07T02:03:25;100256.84;;;4.80;48.34
70217;BME280;65567;55.684;37.570;2023-05-07T02:05:51;100256.56;;;5.06;47.77
70217;BME280;65567;55.684;37.570;2023-05-07T02:08:17;100262.41;;;5.22;47.18
70217;BME280;65567;55.684;37.570;2023-05-07T02:10:43;100263.81;;;5.48;46.75
70217;BME280;65567;55.684;37.570;2023-05-07T02:13:09;100261.84;;;5.66;46.17
70217;BME280;65567;55.684;37.570;2023-05-07T02:18:41;100260.63;;;5.91;45.56
70217;BME280;65567;55.684;37.570;2023-05-07T02:21:06;100265.50;;;6.15;45.09
70217;BME280;65567;55.684;37.570;2023-05-07T02:23:32;100266.09;;;6.31;44.74
70217;BME280;65567;55.684;37.570;2023-05-07T02:25:58;100265.84;;;6.46;44.23
70217;BME280;65567;55.684;37.570;2023-05-07T02:28:24;100268.09;;;6.68;44.10
70217;BME280;65567;55.684;37.570;2023-05-07T02:30:50;100265.84;;;6.96;43.27
70217;BME280;65567;55.684;37.570;2023-05-07T02:33:16;100268.03;;;7.16;43.09
70217;BME280;65567;55.684;37.570;2023-05-07T02:35:42;100269.25;;;7.42;42.08
70217;BME280;65567;55.684;37.570;2023-05-07T02:38:08;100270.44;;;7.68;41.84
70217;BME280;65567;55.684;37.570;2023-05-07T02:40:36;100271.63;;;7.93;41.27
70217;BME280;65567;55.684;37.570;2023-05-07T02:43:05;100275.56;;;8.10;40.82
70217;BME280;65567;55.684;37.570;2023-05-07T02:45:32;100278.53;;;8.31;40.22
70217;BME280;65567;55.684;37.570;2023-05-07T02:47:58;100273.63;;;8.56;39.89
70217;BME280;65567;55.684;37.570;2023-05-07T02:50:25;100282.00;;;8.69;39.56
70217;BME280;65567;55.684;37.570;2023-05-07T02:52:52;100285.78;;;8.90;39.18
70217;BME280;65567;55.684;37.570;2023-05-07T02:55:18;100294.22;;;9.01;38.68
70217;BME280;65567;55.684;37.570;2023-05-07T02:57:43;100295.94;;;9.32;38.21
70217;BME280;65567;55.684;37.570;2023-05-07T03:00:14;100296.63;;;9.69;37.89
70217;BME280;65567;55.684;37.570;2023-05-07T03:02:40;100300.03;;;10.01;37.05
70217;BME280;65567;55.684;37.570;2023-05-07T03:05:06;100288.00;;;10.50;36.67
70217;BME280;65567;55.684;37.570;2023-05-07T03:07:34;100283.75;;;10.98;35.78
70217;BME280;65567;55.684;37.570;2023-05-07T03:10:00;100294.59;;;11.36;34.85
70217;BME280;65567;55.684;37.570;2023-05-07T03:12:26;100290.66;;;11.96;34.04
70217;BME280;65567;55.684;37.570;2023-05-07T03:14:52;100290.38;;;12.46;33.61
70217;BME280;65567;55.684;37.570;2023-05-07T03:17:18;100298.53;;;13.02;32.34
70217;BME280;65567;55.684;37.570;2023-05-07T03:19:44;100301.91;;;13.45;31.73
70217;BME280;65567;55.684;37.570;2023-05-07T03:22:10;100300.19;;;14.01;30.81
70217;BME280;65567;55.684;37.570;2023-05-07T03:24:36;100293.31;;;14.88;29.77
70217;BME280;65567;55.684;37.570;2023-05-07T03:27:02;100296.97;;;15.52;28.35
70217;BME280;65567;55.684;37.570;2023-05-07T03:29:28;100297.75;;;15.70;28.06
70217;BME280;65567;55.684;37.570;2023-05-07T03:31:54;100309.28;;;16.01;27.70
70217;BME280;65567;55.684;37.570;2023-05-07T03:34:20;100306.53;;;16.35;27.27
70217;BME280;65567;55.684;37.570;2023-05-07T03:36:50;100306.25;;;16.70;26.80
70217;BME280;65567;55.684;37.570;2023-05-07T03:39:16;100309.19;;;17.10;26.01
70217;BME280;65567;55.684;37.570;2023-05-07T03:41:42;100301.63;;;17.33;25.42
70217;BME280;65567;55.684;37.570;2023-05-07T03:44:08;100306.34;;;17.42;25.38
70217;BME280;65567;55.684;37.570;2023-05-07T03:46:34;100310.59;;;17.59;25.11
70217;BME280;65567;55.684;37.570;2023-05-07T03:49:00;100304.16;;;17.49;25.07
70217;BME280;65567;55.684;37.570;2023-05-07T03:51:26;100313.06;;;17.19;25.10
70217;BME280;65567;55.684;37.570;2023-05-07T03:53:52;100312.94;;;17.06;25.36
70217;BME280;65567;55.684;37.570;2023-05-07T03:56:19;100314.16;;;16.56;25.71
70217;BME280;65567;55.684;37.570;2023-05-07T03:58:45;100312.88;;;16.47;25.94
70217;BME280;65567;55.684;37.570;2023-05-07T04:01:11;100321.38;;;16.82;25.55
70217;BME280;65567;55.684;37.570;2023-05-07T04:03:37;100316.09;;;17.27;25.09
70217;BME280;65567;55.684;37.570;2023-05-07T04:06:03;100323.94;;;17.58;24.72
70217;BME280;65567;55.684;37.570;2023-05-07T04:08:30;100317.84;;;17.84;24.42
70217;BME280;65567;55.684;37.570;2023-05-07T04:10:57;100323.81;;;17.88;23.98
70217;BME280;65567;55.684;37.570;2023-05-07T04:13:23;100328.66;;;17.67;24.16
70217;BME280;65567;55.684;37.570;2023-05-07T04:15:49;100325.03;;;17.82;24.07
70217;BME280;65567;55.684;37.570;2023-05-07T04:18:15;100332.41;;;17.92;24.18
70217;BME280;65567;55.684;37.570;2023-05-07T04:20:41;100335.25;;;17.89;23.87
70217;BME280;65567;55.684;37.570;2023-05-07T04:23:07;100334.53;;;17.58;24.14
70217;BME280;65567;55.684;37.570;2023-05-07T04:25:33;100330.34;;;17.82;23.82
70217;BME280;65567;55.684;37.570;2023-05-07T04:27:59;100329.75;;;18.06;23.76
70217;BME280;65567;55.684;37.570;2023-05-07T04:30:26;100338.66;;;18.05;23.68
70217;BME280;65567;55.684;37.570;2023-05-07T04:32:52;100340.78;;;17.86;23.78
70217;BME280;65567;55.684;37.570;2023-05-07T04:35:18;100336.63;;;17.38;23.87
70217;BME280;65567;55.684;37.570;2023-05-07T04:37:44;100340.66;;;17.15;24.21
70217;BME280;65567;55.684;37.570;2023-05-07T04:40:10;100345.91;;;17.60;23.98
70217;BME280;65567;55.684;37.570;2023-05-07T04:42:36;100346.28;;;18.24;23.10
70217;BME280;65567;55.684;37.570;2023-05-07T04:45:03;100347.13;;;18.52;22.65
70217;BME280;65567;55.684;37.570;2023-05-07T04:47:30;100342.28;;;18.72;22.53
70217;BME280;65567;55.684;37.570;2023-05-07T04:49:57;100337.59;;;18.62;22.60
70217;BME280;65567;55.684;37.570;2023-05-07T04:52:23;100341.94;;;19.17;21.88
70217;BME280;65567;55.684;37.570;2023-05-07T04:54:49;100340.88;;;19.45;21.61
70217;BME280;65567;55.684;37.570;2023-05-07T04:57:15;100345.16;;;19.97;20.53
70217;BME280;65567;55.684;37.570;2023-05-07T04:59:43;100349.31;;;20.02;20.66
70217;BME280;65567;55.684;37.570;2023-05-07T05:02:12;100344.63;;;20.29;20.20
70217;BME280;65567;55.684;37.570;2023-05-07T05:04:38;100347.28;;;20.29;20.43
70217;BME280;65567;55.684;37.570;2023-05-07T05:07:04;100345.25;;;19.96;21.11
70217;BME280;65567;55.684;37.570;2023-05-07T05:09:30;100340.41;;;18.87;21.88
70217;BME280;65567;55.684;37.570;2023-05-07T05:11:56;100343.75;;;18.63;22.56
70217;BME280;65567;55.684;37.570;2023-05-07T05:14:22;100350.97;;;19.01;22.13
70217;BME280;65567;55.684;37.570;2023-05-07T05:16:48;100349.13;;;19.66;21.15
70217;BME280;65567;55.684;37.570;2023-05-07T05:19:14;100357.56;;;20.10;20.39
70217;BME280;65567;55.684;37.570;2023-05-07T05:21:40;100354.69;;;20.37;20.13
70217;BME280;65567;55.684;37.570;2023-05-07T05:24:06;100354.28;;;20.55;19.75
70217;BME280;65567;55.684;37.570;2023-05-07T05:26:32;100350.06;;;20.52;19.81
70217;BME280;65567;55.684;37.570;2023-05-07T05:28:58;100361.50;;;20.41;19.73
70217;BME280;65567;55.684;37.570;2023-05-07T05:31:24;100352.47;;;20.55;19.25
70217;BME280;65567;55.684;37.570;2023-05-07T05:33:50;100354.03;;;20.71;19.00
70217;BME280;65567;55.684;37.570;2023-05-07T05:36:18;100363.63;;;20.36;19.09
70217;BME280;65567;55.684;37.570;2023-05-07T05:38:47;100366.31;;;20.60;19.37
70217;BME280;65567;55.684;37.570;2023-05-07T05:41:13;100361.47;;;20.66;19.18
70217;BME280;65567;55.684;37.570;2023-05-07T05:43:39;100353.78;;;21.09;19.07
70217;BME280;65567;55.684;37.570;2023-05-07T05:46:05;100359.97;;;21.21;18.71
70217;BME280;65567;55.684;37.570;2023-05-07T05:48:31;100363.31;;;21.59;18.36
70217;BME280;65567;55.684;37.570;2023-05-07T05:50:57;100360.81;;;22.01;18.19
70217;BME280;65567;55.684;37.570;2023-05-07T05:53:23;100356.03;;;22.39;17.51
70217;BME280;65567;55.684;37.570;2023-05-07T05:55:50;100363.88;;;21.51;17.80
70217;BME280;65567;55.684;37.570;2023-05-07T05:58:16;100372.09;;;20.90;18.30
70217;BME280;65567;55.684;37.570;2023-05-07T06:00:43;100367.78;;;20.89;18.17
70217;BME280;65567;55.684;37.570;2023-05-07T06:03:10;100377.31;;;20.32;18.75
70217;BME280;65567;55.684;37.570;2023-05-07T06:05:35;100374.97;;;20.27;20.07
70217;BME280;65567;55.684;37.570;2023-05-07T06:08:01;100379.00;;;19.95;19.47
70217;BME280;65567;55.684;37.570;2023-05-07T06:10:28;100376.28;;;18.79;19.71
70217;BME280;65567;55.684;37.570;2023-05-07T06:12:53;100388.59;;;18.53;20.17
70217;BME280;65567;55.684;37.570;2023-05-07T06:15:19;100375.31;;;19.46;19.35
70217;BME280;65567;55.684;37.570;2023-05-07T06:17:46;100373.59;;;19.84;18.81
70217;BME280;65567;55.684;37.570;2023-05-07T06:20:12;100376.59;;;19.54;19.22
70217;BME280;65567;55.684;37.570;2023-05-07T06:22:40;100386.81;;;19.34;19.24
70217;BME280;65567;55.684;37.570;2023-05-07T06:25:07;100390.38;;;18.67;19.63
70217;BME280;65567;55.684;37.570;2023-05-07T06:27:33;100388.09;;;17.48;20.09
70217;BME280;65567;55.684;37.570;2023-05-07T06:29:59;100391.22;;;16.49;21.49
70217;BME280;65567;55.684;37.570;2023-05-07T06:32:25;100393.53;;;16.24;22.47
70217;BME280;65567;55.684;37.570;2023-05-07T06:34:50;100390.66;;;15.45;22.24
70217;BME280;65567;55.684;37.570;2023-05-07T06:37:16;100397.44;;;15.16;23.14
70217;BME280;65567;55.684;37.570;2023-05-07T06:39:42;100387.97;;;15.63;23.17
70217;BME280;65567;55.684;37.570;2023-05-07T06:42:08;100397.78;;;16.42;21.65
70217;BME280;65567;55.684;37.570;2023-05-07T06:44:34;100396.81;;;16.59;22.50
70217;BME280;65567;55.684;37.570;2023-05-07T06:47:00;100383.38;;;17.09;20.91
70217;BME280;65567;55.684;37.570;2023-05-07T06:49:26;100387.66;;;17.11;20.26
70217;BME280;65567;55.684;37.570;2023-05-07T06:51:52;100391.94;;;16.67;21.07
70217;BME280;65567;55.684;37.570;2023-05-07T06:54:18;100389.91;;;16.57;20.70
70217;BME280;65567;55.684;37.570;2023-05-07T06:56:44;100397.78;;;16.42;21.22
70217;BME280;65567;55.684;37.570;2023-05-07T06:59:10;100395.56;;;16.50;20.82
70217;BME280;65567;55.684;37.570;2023-05-07T07:01:36;100390.88;;;16.56;21.18
70217;BME280;65567;55.684;37.570;2023-05-07T07:04:03;100388.31;;;16.84;21.05
70217;BME280;65567;55.684;37.570;2023-05-07T07:06:29;100387.16;;;16.74;20.80
70217;BME280;65567;55.684;37.570;2023-05-07T07:08:57;100389.03;;;16.72;20.76
70217;BME280;65567;55.684;37.570;2023-05-07T07:11:23;100379.41;;;17.01;20.55
70217;BME280;65567;55.684;37.570;2023-05-07T07:13:49;100376.72;;;17.61;19.75
70217;BME280;65567;55.684;37.570;2023-05-07T07:16:16;100385.72;;;17.44;19.25
70217;BME280;65567;55.684;37.570;2023-05-07T07:18:42;100379.38;;;17.32;19.80
70217;BME280;65567;55.684;37.570;2023-05-07T07:21:08;100384.66;;;17.17;19.80
70217;BME280;65567;55.684;37.570;2023-05-07T07:23:35;100382.69;;;17.36;19.44
70217;BME280;65567;55.684;37.570;2023-05-07T07:26:01;100387.16;;;17.64;19.72
70217;BME280;65567;55.684;37.570;2023-05-07T07:28:27;100386.72;;;18.28;19.16
70217;BME280;65567;55.684;37.570;2023-05-07T07:30:53;100382.28;;;18.96;18.79
70217;BME280;65567;55.684;37.570;2023-05-07T07:33:19;100376.47;;;19.68;17.46
70217;BME280;65567;55.684;37.570;2023-05-07T07:35:45;100376.69;;;19.65;17.68
70217;BME280;65567;55.684;37.570;2023-05-07T07:38:11;100378.97;;;20.08;17.42
70217;BME280;65567;55.684;37.570;2023-05-07T07:40:37;100374.19;;;20.01;17.13
70217;BME280;65567;55.684;37.570;2023-05-07T07:43:03;100377.84;;;19.61;17.42
70217;BME280;65567;55.684;37.570;2023-05-07T07:45:29;100370.41;;;19.40;17.77
70217;BME280;65567;55.684;37.570;2023-05-07T07:47:55;100370.00;;;18.95;18.34
70217;BME280;65567;55.684;37.570;2023-05-07T07:50:21;100383.44;;;18.64;18.38
70217;BME280;65567;55.684;37.570;2023-05-07T07:52:48;100375.47;;;18.92;18.22
70217;BME280;65567;55.684;37.570;2023-05-07T07:55:14;100370.84;;;19.08;17.71
70217;BME280;65567;55.684;37.570;2023-05-07T07:57:43;100370.75;;;18.82;17.44
70217;BME280;65567;55.684;37.570;2023-05-07T08:00:09;100374.22;;;18.30;17.96
70217;BME280;65567;55.684;37.570;2023-05-07T08:02:36;100371.44;;;17.90;17.92
70217;BME280;65567;55.684;37.570;2023-05-07T08:05:01;100379.22;;;17.64;18.25
70217;BME280;65567;55.684;37.570;2023-05-07T08:07:27;100371.41;;;17.32;18.13
70217;BME280;65567;55.684;37.570;2023-05-07T08:09:53;100362.03;;;16.81;17.78
70217;BME280;65567;55.684;37.570;2023-05-07T08:12:19;100364.94;;;16.93;18.16
70217;BME280;65567;55.684;37.570;2023-05-07T08:14:45;100368.13;;;17.43;18.27
70217;BME280;65567;55.684;37.570;2023-05-07T08:17:11;100371.44;;;18.04;17.79
70217;BME280;65567;55.684;37.570;2023-05-07T08:19:38;100366.31;;;18.01;18.00
70217;BME280;65567;55.684;37.570;2023-05-07T08:22:04;100380.03;;;17.79;18.37
70217;BME280;65567;55.684;37.570;2023-05-07T08:24:31;100373.31;;;17.88;18.37
70217;BME280;65567;55.684;37.570;2023-05-07T08:26:57;100369.63;;;17.76;18.32
70217;BME280;65567;55.684;37.570;2023-05-07T08:29:23;100368.31;;;17.40;18.82
70217;BME280;65567;55.684;37.570;2023-05-07T08:31:48;100367.47;;;17.54;18.68
70217;BME280;65567;55.684;37.570;2023-05-07T08:34:14;100369.34;;;17.66;18.40
70217;BME280;65567;55.684;37.570;2023-05-07T08:36:40;100365.16;;;17.91;18.12
70217;BME280;65567;55.684;37.570;2023-05-07T08:39:07;100370.50;;;17.62;17.88
70217;BME280;65567;55.684;37.570;2023-05-07T08:41:34;100369.66;;;17.32;17.94
70217;BME280;65567;55.684;37.570;2023-05-07T08:44:03;100371.16;;;17.22;18.27
70217;BME280;65567;55.684;37.570;2023-05-07T08:46:31;100361.22;;;17.26;18.23
70217;BME280;65567;55.684;37.570;2023-05-07T08:48:58;100360.06;;;16.85;18.40
70217;BME280;65567;55.684;37.570;2023-05-07T08:51:24;100361.03;;;16.68;18.63
70217;BME280;65567;55.684;37.570;2023-05-07T08:53:50;100364.78;;;17.10;18.24
70217;BME280;65567;55.684;37.570;2023-05-07T08:56:16;100355.06;;;17.68;17.33
70217;BME280;65567;55.684;37.570;2023-05-07T08:58:43;100362.31;;;18.08;16.91
70217;BME280;65567;55.684;37.570;2023-05-07T09:01:14;100360.84;;;18.59;16.39
70217;BME280;65567;55.684;37.570;2023-05-07T09:03:40;100359.81;;;18.34;16.46
70217;BME280;65567;55.684;37.570;2023-05-07T09:06:07;100362.16;;;17.68;16.88
70217;BME280;65567;55.684;37.570;2023-05-07T09:08:34;100352.97;;;17.16;17.49
70217;BME280;65567;55.684;37.570;2023-05-07T09:11:01;100360.06;;;17.01;17.39
70217;BME280;65567;55.684;37.570;2023-05-07T09:13:28;100358.97;;;16.73;17.94
70217;BME280;65567;55.684;37.570;2023-05-07T09:15:54;100359.03;;;16.57;18.01
70217;BME280;65567;55.684;37.570;2023-05-07T09:18:20;100368.28;;;16.34;18.03
70217;BME280;65567;55.684;37.570;2023-05-07T09:20:46;100365.34;;;16.55;17.32
70217;BME280;65567;55.684;37.570;2023-05-07T09:23:12;100361.34;;;16.47;17.41
70217;BME280;65567;55.684;37.570;2023-05-07T09:25:38;100355.25;;;15.99;17.51
70217;BME280;65567;55.684;37.570;2023-05-07T09:28:04;100347.31;;;15.99;17.82
70217;BME280;65567;55.684;37.570;2023-05-07T09:30:35;100361.72;;;16.25;18.76
70217;BME280;65567;55.684;37.570;2023-05-07T09:33:03;100356.09;;;16.62;18.78
70217;BME280;65567;55.684;37.570;2023-05-07T09:35:30;100358.72;;;17.08;18.65
70217;BME280;65567;55.684;37.570;2023-05-07T09:37:58;100363.59;;;17.45;17.56
70217;BME280;65567;55.684;37.570;2023-05-07T09:40:26;100356.50;;;17.60;17.37
70217;BME280;65567;55.684;37.570;2023-05-07T09:42:53;100355.53;;;17.75;16.90
70217;BME280;65567;55.684;37.570;2023-05-07T09:47:51;100349.28;;;17.76;16.81
70217;BME280;65567;55.684;37.570;2023-05-07T09:50:19;100342.75;;;17.96;16.83
70217;BME280;65567;55.684;37.570;2023-05-07T09:52:47;100357.59;;;18.13;16.36
70217;BME280;65567;55.684;37.570;2023-05-07T09:55:14;100355.13;;;18.10;16.09
70217;BME280;65567;55.684;37.570;2023-05-07T09:57:42;100353.81;;;18.03;16.37
70217;BME280;65567;55.684;37.570;2023-05-07T10:00:09;100353.06;;;18.01;16.31
70217;BME280;65567;55.684;37.570;2023-05-07T10:02:36;100352.47;;;17.81;16.42
70217;BME280;65567;55.684;37.570;2023-05-07T10:05:03;100349.03;;;17.38;16.53
70217;BME280;65567;55.684;37.570;2023-05-07T10:07:29;100346.91;;;17.14;17.23
70217;BME280;65567;55.684;37.570;2023-05-07T10:09:57;100354.31;;;17.38;17.25
70217;BME280;65567;55.684;37.570;2023-05-07T10:12:24;100354.56;;;17.76;17.10
70217;BME280;65567;55.684;37.570;2023-05-07T10:14:52;100343.38;;;18.14;16.80
70217;BME280;65567;55.684;37.570;2023-05-07T10:17:19;100351.13;;;18.45;16.68
70217;BME280;65567;55.684;37.570;2023-05-07T10:19:46;100343.66;;;18.64;16.14
70217;BME280;65567;55.684;37.570;2023-05-07T10:22:13;100340.47;;;18.72;15.84
70217;BME280;65567;55.684;37.570;2023-05-07T10:24:42;100342.25;;;18.59;15.74
70217;BME280;65567;55.684;37.570;2023-05-07T10:27:12;100353.13;;;18.41;15.97
70217;BME280;65567;55.684;37.570;2023-05-07T10:34:48;100344.00;;;18.86;15.95
70217;BME280;65567;55.684;37.570;2023-05-07T10:37:16;100340.63;;;18.83;16.20
70217;BME280;65567;55.684;37.570;2023-05-07T10:39:43;100333.81;;;18.79;16.07
70217;BME280;65567;55.684;37.570;2023-05-07T10:42:13;100340.06;;;18.78;16.07
70217;BME280;65567;55.684;37.570;2023-05-07T10:44:40;100347.22;;;18.91;15.89
70217;BME280;65567;55.684;37.570;2023-05-07T10:47:17;100348.09;;;18.91;16.00
70217;BME280;65567;55.684;37.570;2023-05-07T10:52:21;100354.78;;;18.57;16.04
70217;BME280;65567;55.684;37.570;2023-05-07T10:57:44;100352.34;;;17.70;16.13
70217;BME280;65567;55.684;37.570;2023-05-07T11:05:26;100346.81;;;15.92;17.56
70217;BME280;65567;55.684;37.570;2023-05-07T11:08:00;100343.53;;;15.71;18.08
70217;BME280;65567;55.684;37.570;2023-05-07T11:10:53;100352.47;;;15.68;18.33
70217;BME280;65567;55.684;37.570;2023-05-07T11:13:43;100356.31;;;15.79;18.33
70217;BME280;65567;55.684;37.570;2023-05-07T11:16:24;100354.97;;;15.88;18.03
70217;BME280;65567;55.684;37.570;2023-05-07T11:18:55;100354.09;;;15.71;18.11
70217;BME280;65567;55.684;37.570;2023-05-07T11:21:38;100351.03;;;15.79;18.48
70217;BME280;65567;55.684;37.570;2023-05-07T11:24:06;100349.78;;;16.02;18.02
70217;BME280;65567;55.684;37.570;2023-05-07T11:29:20;100345.50;;;15.99;17.94
70217;BME280;65567;55.684;37.570;2023-05-07T11:31:51;100354.81;;;15.57;18.37
70217;BME280;65567;55.684;37.570;2023-05-07T11:34:25;100346.88;;;15.41;18.40
70217;BME280;65567;55.684;37.570;2023-05-07T11:36:52;100349.47;;;15.08;18.72
70217;BME280;65567;55.684;37.570;2023-05-07T11:39:25;100358.53;;;15.02;19.03
70217;BME280;65567;55.684;37.570;2023-05-07T11:41:51;100358.31;;;15.07;18.73
70217;BME280;65567;55.684;37.570;2023-05-07T11:44:18;100356.09;;;15.16;19.53
70217;BME280;65567;55.684;37.570;2023-05-07T11:46:46;100364.97;;;15.31;18.77
70217;BME280;65567;55.684;37.570;2023-05-07T11:49:13;100356.69;;;15.22;18.23
70217;BME280;65567;55.684;37.570;2023-05-07T11:51:40;100359.34;;;15.04;18.52
70217;BME280;65567;55.684;37.570;2023-05-07T11:54:08;100358.72;;;14.81;18.74
70217;BME280;65567;55.684;37.570;2023-05-07T11:56:37;100352.44;;;14.84;18.86
70217;BME280;65567;55.684;37.570;2023-05-07T11:59:04;100354.38;;;14.98;18.84
70217;BME280;65567;55.684;37.570;2023-05-07T12:01:35;100351.88;;;15.12;19.10
70217;BME280;65567;55.684;37.570;2023-05-07T12:04:03;100352.97;;;15.26;18.54
70217;BME280;65567;55.684;37.570;2023-05-07T12:06:29;100344.41;;;15.20;18.81
70217;BME280;65567;55.684;37.570;2023-05-07T12:08:56;100343.63;;;15.36;18.78
70217;BME280;65567;55.684;37.570;2023-05-07T12:11:24;100347.53;;;15.45;18.42
70217;BME280;65567;55.684;37.570;2023-05-07T12:13:51;100361.63;;;15.45;18.50
70217;BME280;65567;55.684;37.570;2023-05-07T12:16:18;100355.41;;;15.46;18.92
70217;BME280;65567;55.684;37.570;2023-05-07T12:18:44;100353.53;;;15.64;18.66
70217;BME280;65567;55.684;37.570;2023-05-07T12:21:11;100355.75;;;15.72;18.57
70217;BME280;65567;55.684;37.570;2023-05-07T12:23:37;100348.34;;;15.63;18.50
70217;BME280;65567;55.684;37.570;2023-05-07T12:26:04;100353.09;;;15.40;18.90
70217;BME280;65567;55.684;37.570;2023-05-07T12:28:31;100347.00;;;15.38;18.74
70217;BME280;65567;55.684;37.570;2023-05-07T12:31:02;100356.22;;;15.13;19.26
70217;BME280;65567;55.684;37.570;2023-05-07T12:33:27;100357.63;;;15.03;19.20
70217;BME280;65567;55.684;37.570;2023-05-07T12:35:55;100349.22;;;15.12;19.52
70217;BME280;65567;55.684;37.570;2023-05-07T12:38:21;100345.44;;;15.00;19.29
70217;BME280;65567;55.684;37.570;2023-05-07T12:40:53;100339.16;;;15.03;19.15
70217;BME280;65567;55.684;37.570;2023-05-07T12:43:21;100334.50;;;15.08;19.46
70217;BME280;65567;55.684;37.570;2023-05-07T12:45:49;100339.94;;;15.05;19.13
70217;BME280;65567;55.684;37.570;2023-05-07T12:48:16;100334.41;;;15.10;19.22
70217;BME280;65567;55.684;37.570;2023-05-07T12:50:42;100335.66;;;15.02;19.25
70217;BME280;65567;55.684;37.570;2023-05-07T12:53:11;100342.19;;;14.95;18.97
70217;BME280;65567;55.684;37.570;2023-05-07T12:55:50;100341.03;;;14.83;19.55
70217;BME280;65567;55.684;37.570;2023-05-07T12:58:20;100337.75;;;14.78;19.26
70217;BME280;65567;55.684;37.570;2023-05-07T13:00:49;100341.31;;;14.77;19.44
70217;BME280;65567;55.684;37.570;2023-05-07T13:03:30;100337.25;;;14.52;19.67
70217;BME280;65567;55.684;37.570;2023-05-07T13:06:08;100333.06;;;14.31;19.82